sensor_id;sensor_type;location;lat;lon;timestamp;temperature;humidity
58517;DHT22;44308;50.810;0.284;2023-06-22T08:23:50;26.80;99.90
58517;DHT22;44308;50.810;0.284;2023-06-22T08:26:16;27.30;99.90
58517;DHT22;44308;50.810;0.284;2023-06-22T08:28:41;26.80;99.90
58517;DHT22;44308;50.810;0.284;2023-06-22T08:31:07;26.90;99.90
58517;DHT22;44308;50.810;0.284;2023-06-22T08:33:35;27.10;99.90
58517;DHT22;44308;50.810;0.284;2023-06-22T08:36:00;27.10;99.90
58517;DHT22;44308;50.810;0.284;2023-06-22T08:38:26;27.20;99.90
58517;DHT22;44308;50.810;0.284;2023-06-22T08:40:52;27.40;99.90
58517;DHT22;44308;50.810;0.284;2023-06-22T08:43:19;27.70;99.90
58517;DHT22;44308;50.810;0.284;2023-06-22T08:45:44;28.10;99.90
58517;DHT22;44308;50.810;0.284;2023-06-22T08:48:11;28.20;99.90
58517;DHT22;44308;50.810;0.284;2023-06-22T08:50:36;28.20;99.90
58517;DHT22;44308;50.810;0.284;2023-06-22T08:53:02;28.20;99.90
58517;DHT22;44308;50.810;0.284;2023-06-22T08:55:28;28.10;99.90
58517;DHT22;44308;50.810;0.284;2023-06-22T08:57:54;28.20;99.90
58517;DHT22;44308;50.810;0.284;2023-06-22T09:00:20;28.10;99.90
58517;DHT22;44308;50.810;0.284;2023-06-22T09:02:47;28.00;99.90
58517;DHT22;44308;50.810;0.284;2023-06-22T09:05:13;28.50;99.90
58517;DHT22;44308;50.810;0.284;2023-06-22T09:07:39;28.70;99.90
58517;DHT22;44308;50.810;0.284;2023-06-22T09:10:05;28.80;99.90
58517;DHT22;44308;50.810;0.284;2023-06-22T09:12:32;28.50;99.90
58517;DHT22;44308;50.810;0.284;2023-06-22T09:14:59;28.80;99.90
58517;DHT22;44308;50.810;0.284;2023-06-22T09:17:26;29.10;99.90
58517;DHT22;44308;50.810;0.284;2023-06-22T09:19:54;29.00;99.90
58517;DHT22;44308;50.810;0.284;2023-06-22T09:22:20;28.90;99.90
58517;DHT22;44308;50.810;0.284;2023-06-22T09:24:46;28.90;99.90
58517;DHT22;44308;50.810;0.284;2023-06-22T09:27:12;29.10;99.90
58517;DHT22;44308;50.810;0.284;2023-06-22T09:29:38;29.40;99.90
58517;DHT22;44308;50.810;0.284;2023-06-22T09:32:06;29.10;99.90
58517;DHT22;44308;50.810;0.284;2023-06-22T09:34:32;29.60;99.90
58517;DHT22;44308;50.810;0.284;2023-06-22T09:36:58;30.00;99.90
58517;DHT22;44308;50.810;0.284;2023-06-22T09:39:26;30.20;99.90
58517;DHT22;44308;50.810;0.284;2023-06-22T09:41:51;29.70;99.90
58517;DHT22;44308;50.810;0.284;2023-06-22T09:44:17;29.80;99.90
58517;DHT22;44308;50.810;0.284;2023-06-22T09:46:43;29.40;99.90
58517;DHT22;44308;50.810;0.284;2023-06-22T09:49:09;29.80;99.90
58517;DHT22;44308;50.810;0.284;2023-06-22T09:51:34;30.20;99.90
58517;DHT22;44308;50.810;0.284;2023-06-22T09:54:01;30.20;99.90
58517;DHT22;44308;50.810;0.284;2023-06-22T09:56:27;30.60;99.90
58517;DHT22;44308;50.810;0.284;2023-06-22T09:58:53;30.90;99.90
58517;DHT22;44308;50.810;0.284;2023-06-22T10:01:19;31.00;99.90
58517;DHT22;44308;50.810;0.284;2023-06-22T10:03:46;31.30;99.90
58517;DHT22;44308;50.810;0.284;2023-06-22T10:06:12;31.10;99.90
58517;DHT22;44308;50.810;0.284;2023-06-22T10:08:37;31.00;99.90
58517;DHT22;44308;50.810;0.284;2023-06-22T10:11:04;30.90;99.90
58517;DHT22;44308;50.810;0.284;2023-06-22T10:13:31;30.60;99.90
58517;DHT22;44308;50.810;0.284;2023-06-22T10:15:57;30.70;99.90
58517;DHT22;44308;50.810;0.284;2023-06-22T10:18:23;31.20;99.90
58517;DHT22;44308;50.810;0.284;2023-06-22T10:20:50;30.30;99.90
58517;DHT22;44308;50.810;0.284;2023-06-22T10:23:20;30.60;99.90
58517;DHT22;44308;50.810;0.284;2023-06-22T10:25:46;30.40;99.90
58517;DHT22;44308;50.810;0.284;2023-06-22T10:28:12;30.30;99.90
58517;DHT22;44308;50.810;0.284;2023-06-22T10:30:44;30.70;99.90
58517;DHT22;44308;50.810;0.284;2023-06-22T10:33:11;30.80;99.90
58517;DHT22;44308;50.810;0.284;2023-06-22T10:35:38;30.40;99.90
58517;DHT22;44308;50.810;0.284;2023-06-22T10:38:04;30.20;99.90
58517;DHT22;44308;50.810;0.284;2023-06-22T10:40:30;30.40;99.90
58517;DHT22;44308;50.810;0.284;2023-06-22T10:42:56;30.80;99.90
58517;DHT22;44308;50.810;0.284;2023-06-22T10:45:22;30.80;99.90
58517;DHT22;44308;50.810;0.284;2023-06-22T10:47:48;31.10;99.90
58517;DHT22;44308;50.810;0.284;2023-06-22T10:50:14;30.90;99.90
58517;DHT22;44308;50.810;0.284;2023-06-22T10:52:41;30.90;99.90
58517;DHT22;44308;50.810;0.284;2023-06-22T10:55:08;30.60;99.90
58517;DHT22;44308;50.810;0.284;2023-06-22T10:57:34;30.80;99.90
58517;DHT22;44308;50.810;0.284;2023-06-22T11:00:00;30.70;99.90
58517;DHT22;44308;50.810;0.284;2023-06-22T11:02:26;30.60;99.90
58517;DHT22;44308;50.810;0.284;2023-06-22T11:04:53;30.80;99.90
58517;DHT22;44308;50.810;0.284;2023-06-22T11:07:19;30.60;99.90
58517;DHT22;44308;50.810;0.284;2023-06-22T11:09:45;30.20;99.90
58517;DHT22;44308;50.810;0.284;2023-06-22T11:12:10;30.10;99.90
58517;DHT22;44308;50.810;0.284;2023-06-22T11:14:36;30.20;99.90
58517;DHT22;44308;50.810;0.284;2023-06-22T11:17:04;30.60;99.90
58517;DHT22;44308;50.810;0.284;2023-06-22T11:19:30;31.10;99.90
58517;DHT22;44308;50.810;0.284;2023-06-22T11:21:56;31.00;99.90
58517;DHT22;44308;50.810;0.284;2023-06-22T11:24:24;30.60;99.90
58517;DHT22;44308;50.810;0.284;2023-06-22T11:26:50;30.30;99.90
58517;DHT22;44308;50.810;0.284;2023-06-22T11:29:16;30.40;99.90
58517;DHT22;44308;50.810;0.284;2023-06-22T11:31:42;30.50;99.90
58517;DHT22;44308;50.810;0.284;2023-06-22T11:34:11;30.50;99.90
58517;DHT22;44308;50.810;0.284;2023-06-22T11:36:36;30.60;99.90
58517;DHT22;44308;50.810;0.284;2023-06-22T11:39:02;30.60;99.90
58517;DHT22;44308;50.810;0.284;2023-06-22T11:41:28;31.10;99.90
58517;DHT22;44308;50.810;0.284;2023-06-22T11:43:54;31.00;99.90
58517;DHT22;44308;50.810;0.284;2023-06-22T11:46:19;30.80;99.90
58517;DHT22;44308;50.810;0.284;2023-06-22T11:48:45;30.90;99.90
58517;DHT22;44308;50.810;0.284;2023-06-22T11:51:11;31.20;99.90
58517;DHT22;44308;50.810;0.284;2023-06-22T11:53:37;31.20;99.90
58517;DHT22;44308;50.810;0.284;2023-06-22T11:56:03;30.70;99.90
58517;DHT22;44308;50.810;0.284;2023-06-22T11:58:29;30.70;99.90
58517;DHT22;44308;50.810;0.284;2023-06-22T12:00:54;30.20;99.90
58517;DHT22;44308;50.810;0.284;2023-06-22T12:03:21;29.90;99.90
58517;DHT22;44308;50.810;0.284;2023-06-22T12:05:47;29.90;99.90
58517;DHT22;44308;50.810;0.284;2023-06-22T12:08:13;30.20;99.90
58517;DHT22;44308;50.810;0.284;2023-06-22T12:10:39;30.10;99.90
58517;DHT22;44308;50.810;0.284;2023-06-22T12:13:05;30.40;99.90
58517;DHT22;44308;50.810;0.284;2023-06-22T12:15:30;30.30;99.90
58517;DHT22;44308;50.810;0.284;2023-06-22T12:17:56;30.30;99.90
58517;DHT22;44308;50.810;0.284;2023-06-22T12:20:22;30.30;99.90
58517;DHT22;44308;50.810;0.284;2023-06-22T12:22:47;30.20;99.90
58517;DHT22;44308;50.810;0.284;2023-06-22T12:25:15;30.20;99.90
58517;DHT22;44308;50.810;0.284;2023-06-22T12:27:40;30.40;99.90
58517;DHT22;44308;50.810;0.284;2023-06-22T12:30:09;30.20;99.90
58517;DHT22;44308;50.810;0.284;2023-06-22T12:32:35;30.00;99.90
58517;DHT22;44308;50.810;0.284;2023-06-22T12:35:00;29.80;99.90
58517;DHT22;44308;50.810;0.284;2023-06-22T12:37:26;29.90;99.90
58517;DHT22;44308;50.810;0.284;2023-06-22T12:39:54;30.10;99.90
58517;DHT22;44308;50.810;0.284;2023-06-22T12:42:19;29.80;99.90
58517;DHT22;44308;50.810;0.284;2023-06-22T12:44:46;29.70;99.90
58517;DHT22;44308;50.810;0.284;2023-06-22T12:47:12;29.50;99.90
58517;DHT22;44308;50.810;0.284;2023-06-22T12:49:38;29.50;99.90
58517;DHT22;44308;50.810;0.284;2023-06-22T12:52:09;29.50;99.90
58517;DHT22;44308;50.810;0.284;2023-06-22T12:54:35;29.30;99.90
58517;DHT22;44308;50.810;0.284;2023-06-22T12:57:01;29.40;99.90
58517;DHT22;44308;50.810;0.284;2023-06-22T12:59:27;29.30;99.90
58517;DHT22;44308;50.810;0.284;2023-06-22T13:01:52;29.00;99.90
58517;DHT22;44308;50.810;0.284;2023-06-22T13:04:18;29.20;99.90
58517;DHT22;44308;50.810;0.284;2023-06-22T13:06:47;29.20;99.90
58517;DHT22;44308;50.810;0.284;2023-06-22T13:09:18;29.30;99.90
58517;DHT22;44308;50.810;0.284;2023-06-22T13:11:46;29.10;99.90
58517;DHT22;44308;50.810;0.284;2023-06-22T13:14:12;29.30;99.90
58517;DHT22;44308;50.810;0.284;2023-06-22T13:16:38;29.20;99.90
58517;DHT22;44308;50.810;0.284;2023-06-22T13:19:03;29.00;99.90
58517;DHT22;44308;50.810;0.284;2023-06-22T13:21:30;28.80;99.90
58517;DHT22;44308;50.810;0.284;2023-06-22T13:23:56;29.00;99.90
58517;DHT22;44308;50.810;0.284;2023-06-22T13:26:22;29.10;99.90
58517;DHT22;44308;50.810;0.284;2023-06-22T13:28:47;28.70;99.90
58517;DHT22;44308;50.810;0.284;2023-06-22T13:31:13;28.50;99.90
58517;DHT22;44308;50.810;0.284;2023-06-22T13:33:39;28.60;99.90
58517;DHT22;44308;50.810;0.284;2023-06-22T13:36:06;28.80;99.90
58517;DHT22;44308;50.810;0.284;2023-06-22T13:38:35;28.70;99.90
58517;DHT22;44308;50.810;0.284;2023-06-22T13:41:05;28.80;99.90
58517;DHT22;44308;50.810;0.284;2023-06-22T13:43:30;28.80;99.90
58517;DHT22;44308;50.810;0.284;2023-06-22T13:45:57;28.90;99.90
58517;DHT22;44308;50.810;0.284;2023-06-22T13:48:22;28.70;99.90
58517;DHT22;44308;50.810;0.284;2023-06-22T13:50:49;28.50;99.90
58517;DHT22;44308;50.810;0.284;2023-06-22T13:53:14;28.80;99.90
58517;DHT22;44308;50.810;0.284;2023-06-22T13:55:40;28.70;99.90
58517;DHT22;44308;50.810;0.284;2023-06-22T13:58:06;28.80;99.90
58517;DHT22;44308;50.810;0.284;2023-06-22T14:00:32;29.00;99.90
58517;DHT22;44308;50.810;0.284;2023-06-22T14:02:58;29.30;99.90
58517;DHT22;44308;50.810;0.284;2023-06-22T14:05:23;29.30;99.90
58517;DHT22;44308;50.810;0.284;2023-06-22T14:07:49;29.30;99.90
58517;DHT22;44308;50.810;0.284;2023-06-22T14:10:15;29.10;99.90
58517;DHT22;44308;50.810;0.284;2023-06-22T14:12:40;29.10;99.90
58517;DHT22;44308;50.810;0.284;2023-06-22T14:15:06;29.10;99.90
58517;DHT22;44308;50.810;0.284;2023-06-22T14:17:32;28.90;99.90
58517;DHT22;44308;50.810;0.284;2023-06-22T14:19:58;28.50;99.90
58517;DHT22;44308;50.810;0.284;2023-06-22T14:22:23;28.10;99.90
58517;DHT22;44308;50.810;0.284;2023-06-22T14:24:49;27.80;99.90
58517;DHT22;44308;50.810;0.284;2023-06-22T14:27:15;27.60;99.90
58517;DHT22;44308;50.810;0.284;2023-06-22T14:29:41;27.80;99.90
58517;DHT22;44308;50.810;0.284;2023-06-22T14:32:07;27.90;99.90
58517;DHT22;44308;50.810;0.284;2023-06-22T14:34:34;27.60;99.90
58517;DHT22;44308;50.810;0.284;2023-06-22T14:37:02;27.60;99.90
58517;DHT22;44308;50.810;0.284;2023-06-22T14:39:27;27.70;99.90
58517;DHT22;44308;50.810;0.284;2023-06-22T14:41:53;27.60;99.90
58517;DHT22;44308;50.810;0.284;2023-06-22T14:44:19;27.60;99.90
58517;DHT22;44308;50.810;0.284;2023-06-22T14:46:45;27.40;99.90
58517;DHT22;44308;50.810;0.284;2023-06-22T14:49:10;26.70;99.90
58517;DHT22;44308;50.810;0.284;2023-06-22T14:51:36;26.60;99.90
58517;DHT22;44308;50.810;0.284;2023-06-22T14:54:02;26.60;99.90
58517;DHT22;44308;50.810;0.284;2023-06-22T14:56:28;26.70;99.90
58517;DHT22;44308;50.810;0.284;2023-06-22T14:58:53;26.90;99.90
58517;DHT22;44308;50.810;0.284;2023-06-22T15:01:19;26.80;99.90
58517;DHT22;44308;50.810;0.284;2023-06-22T15:03:45;26.90;99.90
58517;DHT22;44308;50.810;0.284;2023-06-22T15:06:10;26.60;99.90
58517;DHT22;44308;50.810;0.284;2023-06-22T15:08:40;26.50;99.90
58517;DHT22;44308;50.810;0.284;2023-06-22T15:11:06;26.50;99.90
58517;DHT22;44308;50.810;0.284;2023-06-22T15:13:32;26.70;99.90
58517;DHT22;44308;50.810;0.284;2023-06-22T15:16:00;26.80;99.90
58517;DHT22;44308;50.810;0.284;2023-06-22T15:18:26;26.80;99.90
58517;DHT22;44308;50.810;0.284;2023-06-22T15:20:52;26.60;99.90
58517;DHT22;44308;50.810;0.284;2023-06-22T15:23:18;26.50;99.90
58517;DHT22;44308;50.810;0.284;2023-06-22T15:25:44;26.60;99.90
58517;DHT22;44308;50.810;0.284;2023-06-22T15:28:11;26.60;99.90
58517;DHT22;44308;50.810;0.284;2023-06-22T15:30:37;26.50;99.90
58517;DHT22;44308;50.810;0.284;2023-06-22T15:33:02;26.30;99.90
58517;DHT22;44308;50.810;0.284;2023-06-22T15:35:28;26.30;99.90
58517;DHT22;44308;50.810;0.284;2023-06-22T15:37:54;26.40;99.90
58517;DHT22;44308;50.810;0.284;2023-06-22T15:40:19;26.30;99.90
58517;DHT22;44308;50.810;0.284;2023-06-22T15:42:45;26.10;99.90
58517;DHT22;44308;50.810;0.284;2023-06-22T15:45:13;26.10;99.90
58517;DHT22;44308;50.810;0.284;2023-06-22T15:47:38;26.20;99.90
58517;DHT22;44308;50.810;0.284;2023-06-22T15:50:04;26.20;99.90
58517;DHT22;44308;50.810;0.284;2023-06-22T15:52:30;26.30;99.90
58517;DHT22;44308;50.810;0.284;2023-06-22T15:54:56;26.30;99.90
58517;DHT22;44308;50.810;0.284;2023-06-22T15:57:27;26.20;99.90
58517;DHT22;44308;50.810;0.284;2023-06-22T15:59:53;26.10;99.90
58517;DHT22;44308;50.810;0.284;2023-06-22T16:02:19;25.80;99.90
58517;DHT22;44308;50.810;0.284;2023-06-22T16:04:45;25.70;99.90
58517;DHT22;44308;50.810;0.284;2023-06-22T16:07:12;26.00;99.90
58517;DHT22;44308;50.810;0.284;2023-06-22T16:09:39;26.30;99.90
58517;DHT22;44308;50.810;0.284;2023-06-22T16:12:05;26.40;99.90
58517;DHT22;44308;50.810;0.284;2023-06-22T16:14:31;26.00;99.90
58517;DHT22;44308;50.810;0.284;2023-06-22T16:16:56;25.60;99.90
58517;DHT22;44308;50.810;0.284;2023-06-22T16:19:22;25.50;99.90
58517;DHT22;44308;50.810;0.284;2023-06-22T16:21:48;25.60;99.90
58517;DHT22;44308;50.810;0.284;2023-06-22T16:24:14;25.40;99.90
58517;DHT22;44308;50.810;0.284;2023-06-22T16:26:42;25.30;99.90
58517;DHT22;44308;50.810;0.284;2023-06-22T16:29:09;25.40;99.90
58517;DHT22;44308;50.810;0.284;2023-06-22T16:31:34;25.20;99.90
58517;DHT22;44308;50.810;0.284;2023-06-22T16:34:02;25.00;99.90
58517;DHT22;44308;50.810;0.284;2023-06-22T16:36:28;24.80;99.90
58517;DHT22;44308;50.810;0.284;2023-06-22T16:38:53;24.50;99.90
58517;DHT22;44308;50.810;0.284;2023-06-22T16:41:19;24.60;99.90
58517;DHT22;44308;50.810;0.284;2023-06-22T16:43:45;24.50;99.90
58517;DHT22;44308;50.810;0.284;2023-06-22T16:46:10;24.30;99.90
58517;DHT22;44308;50.810;0.284;2023-06-22T16:48:37;24.10;99.90
58517;DHT22;44308;50.810;0.284;2023-06-22T16:51:03;24.10;99.90
58517;DHT22;44308;50.810;0.284;2023-06-22T16:53:29;24.20;99.90
58517;DHT22;44308;50.810;0.284;2023-06-22T16:55:55;24.20;99.90
58517;DHT22;44308;50.810;0.284;2023-06-22T16:58:20;24.10;99.90
58517;DHT22;44308;50.810;0.284;2023-06-22T17:00:50;24.20;99.90
58517;DHT22;44308;50.810;0.284;2023-06-22T17:03:39;24.30;99.90
58517;DHT22;44308;50.810;0.284;2023-06-22T17:06:09;24.40;99.90
58517;DHT22;44308;50.810;0.284;2023-06-22T17:08:37;24.50;99.90
58517;DHT22;44308;50.810;0.284;2023-06-22T17:11:05;24.40;99.90
58517;DHT22;44308;50.810;0.284;2023-06-22T17:13:31;24.50;99.90
58517;DHT22;44308;50.810;0.284;2023-06-22T17:16:03;24.50;99.90
58517;DHT22;44308;50.810;0.284;2023-06-22T17:18:29;24.40;99.90
58517;DHT22;44308;50.810;0.284;2023-06-22T17:20:56;24.40;99.90
58517;DHT22;44308;50.810;0.284;2023-06-22T17:23:24;24.30;99.90
58517;DHT22;44308;50.810;0.284;2023-06-22T17:25:52;24.20;99.90
58517;DHT22;44308;50.810;0.284;2023-06-22T17:28:18;24.30;99.90
58517;DHT22;44308;50.810;0.284;2023-06-22T17:30:44;24.30;99.90
58517;DHT22;44308;50.810;0.284;2023-06-22T17:33:15;24.20;99.90
58517;DHT22;44308;50.810;0.284;2023-06-22T17:35:51;24.10;99.90
58517;DHT22;44308;50.810;0.284;2023-06-22T17:38:20;24.10;99.90
58517;DHT22;44308;50.810;0.284;2023-06-22T17:40:48;24.10;99.90
58517;DHT22;44308;50.810;0.284;2023-06-22T17:43:14;23.90;99.90
58517;DHT22;44308;50.810;0.284;2023-06-22T17:45:43;23.90;99.90
58517;DHT22;44308;50.810;0.284;2023-06-22T17:48:10;23.80;99.90
58517;DHT22;44308;50.810;0.284;2023-06-22T17:50:40;23.80;99.90
58517;DHT22;44308;50.810;0.284;2023-06-22T17:53:10;23.70;99.90
58517;DHT22;44308;50.810;0.284;2023-06-22T17:55:36;23.60;99.90
58517;DHT22;44308;50.810;0.284;2023-06-22T17:58:02;23.50;99.90
58517;DHT22;44308;50.810;0.284;2023-06-22T18:00:28;23.50;99.90
58517;DHT22;44308;50.810;0.284;2023-06-22T18:02:54;23.50;99.90
58517;DHT22;44308;50.810;0.284;2023-06-22T18:05:47;23.30;99.90
58517;DHT22;44308;50.810;0.284;2023-06-22T18:08:13;23.20;99.90
58517;DHT22;44308;50.810;0.284;2023-06-22T18:10:42;23.20;99.90
58517;DHT22;44308;50.810;0.284;2023-06-22T18:13:09;23.00;99.90
58517;DHT22;44308;50.810;0.284;2023-06-22T18:15:37;23.00;99.90
58517;DHT22;44308;50.810;0.284;2023-06-22T18:18:03;22.80;99.90
58517;DHT22;44308;50.810;0.284;2023-06-22T18:20:29;22.70;99.90
58517;DHT22;44308;50.810;0.284;2023-06-22T18:22:57;22.70;99.90
58517;DHT22;44308;50.810;0.284;2023-06-22T18:25:23;22.60;99.90
58517;DHT22;44308;50.810;0.284;2023-06-22T18:27:51;22.40;99.90
58517;DHT22;44308;50.810;0.284;2023-06-22T18:30:17;22.40;99.90
58517;DHT22;44308;50.810;0.284;2023-06-22T18:32:43;22.30;99.90
58517;DHT22;44308;50.810;0.284;2023-06-22T18:35:10;22.30;99.90
58517;DHT22;44308;50.810;0.284;2023-06-22T18:37:39;22.20;99.90
58517;DHT22;44308;50.810;0.284;2023-06-22T18:40:07;22.20;99.90
58517;DHT22;44308;50.810;0.284;2023-06-22T18:42:39;22.20;99.90
58517;DHT22;44308;50.810;0.284;2023-06-22T18:45:25;22.20;99.90
58517;DHT22;44308;50.810;0.284;2023-06-22T18:53:03;22.20;99.90
58517;DHT22;44308;50.810;0.284;2023-06-22T18:55:31;22.10;99.90
58517;DHT22;44308;50.810;0.284;2023-06-22T18:58:22;22.00;99.90
58517;DHT22;44308;50.810;0.284;2023-06-22T19:00:51;21.80;99.90
58517;DHT22;44308;50.810;0.284;2023-06-22T19:03:31;21.60;99.90
58517;DHT22;44308;50.810;0.284;2023-06-22T19:05:58;21.60;99.90
58517;DHT22;44308;50.810;0.284;2023-06-22T19:08:23;21.50;99.90
58517;DHT22;44308;50.810;0.284;2023-06-22T19:10:50;21.40;99.90
58517;DHT22;44308;50.810;0.284;2023-06-22T19:13:19;21.30;99.90
58517;DHT22;44308;50.810;0.284;2023-06-22T19:18:43;21.20;99.90
58517;DHT22;44308;50.810;0.284;2023-06-22T19:21:21;21.20;99.90
58517;DHT22;44308;50.810;0.284;2023-06-22T19:23:48;21.20;99.90
58517;DHT22;44308;50.810;0.284;2023-06-22T19:26:18;21.30;99.90
58517;DHT22;44308;50.810;0.284;2023-06-22T19:31:15;21.40;99.90
58517;DHT22;44308;50.810;0.284;2023-06-22T19:33:42;21.40;99.90
58517;DHT22;44308;50.810;0.284;2023-06-22T19:36:08;21.40;99.90
58517;DHT22;44308;50.810;0.284;2023-06-22T19:38:34;21.40;99.90
58517;DHT22;44308;50.810;0.284;2023-06-22T19:41:00;21.30;99.90
58517;DHT22;44308;50.810;0.284;2023-06-22T19:43:30;21.30;99.90
58517;DHT22;44308;50.810;0.284;2023-06-22T19:45:56;21.20;99.90
58517;DHT22;44308;50.810;0.284;2023-06-22T19:48:27;21.10;99.90
58517;DHT22;44308;50.810;0.284;2023-06-22T19:50:53;21.00;99.90
58517;DHT22;44308;50.810;0.284;2023-06-22T19:53:21;20.90;99.90
58517;DHT22;44308;50.810;0.284;2023-06-22T19:55:48;20.80;99.90
58517;DHT22;44308;50.810;0.284;2023-06-22T19:58:16;20.80;99.90
58517;DHT22;44308;50.810;0.284;2023-06-22T20:00:43;20.80;99.90
58517;DHT22;44308;50.810;0.284;2023-06-22T20:03:14;20.90;99.90
58517;DHT22;44308;50.810;0.284;2023-06-22T20:05:44;20.70;99.90
58517;DHT22;44308;50.810;0.284;2023-06-22T20:08:15;20.60;99.90
58517;DHT22;44308;50.810;0.284;2023-06-22T20:10:42;20.60;99.90
58517;DHT22;44308;50.810;0.284;2023-06-22T20:13:27;20.70;99.90
58517;DHT22;44308;50.810;0.284;2023-06-22T20:15:52;20.70;99.90
58517;DHT22;44308;50.810;0.284;2023-06-22T20:18:22;20.70;99.90
58517;DHT22;44308;50.810;0.284;2023-06-22T20:20:47;20.70;99.90
58517;DHT22;44308;50.810;0.284;2023-06-22T20:23:20;20.70;99.90
58517;DHT22;44308;50.810;0.284;2023-06-22T20:25:46;20.70;99.90
58517;DHT22;44308;50.810;0.284;2023-06-22T20:28:15;20.70;99.90
58517;DHT22;44308;50.810;0.284;2023-06-22T20:31:02;20.70;99.90
58517;DHT22;44308;50.810;0.284;2023-06-22T20:33:29;20.60;99.90
58517;DHT22;44308;50.810;0.284;2023-06-22T20:35:54;20.60;99.90
58517;DHT22;44308;50.810;0.284;2023-06-22T20:38:20;20.70;99.90
58517;DHT22;44308;50.810;0.284;2023-06-22T20:40:55;20.60;99.90
58517;DHT22;44308;50.810;0.284;2023-06-22T20:43:21;20.60;99.90
58517;DHT22;44308;50.810;0.284;2023-06-22T20:45:53;20.60;99.90
58517;DHT22;44308;50.810;0.284;2023-06-22T20:48:21;20.60;99.90
58517;DHT22;44308;50.810;0.284;2023-06-22T20:50:48;20.60;99.90
58517;DHT22;44308;50.810;0.284;2023-06-22T20:53:14;20.50;99.90
58517;DHT22;44308;50.810;0.284;2023-06-22T20:55:40;20.50;99.90
58517;DHT22;44308;50.810;0.284;2023-06-22T20:58:08;20.50;99.90
58517;DHT22;44308;50.810;0.284;2023-06-22T21:00:35;20.40;99.90
58517;DHT22;44308;50.810;0.284;2023-06-22T21:03:07;20.40;99.90
58517;DHT22;44308;50.810;0.284;2023-06-22T21:05:39;20.30;99.90
58517;DHT22;44308;50.810;0.284;2023-06-22T21:08:08;20.30;99.90
58517;DHT22;44308;50.810;0.284;2023-06-22T21:10:34;20.30;99.90
58517;DHT22;44308;50.810;0.284;2023-06-22T21:13:00;20.30;99.90
58517;DHT22;44308;50.810;0.284;2023-06-22T21:15:27;20.30;99.90
58517;DHT22;44308;50.810;0.284;2023-06-22T21:17:53;20.30;99.90
58517;DHT22;44308;50.810;0.284;2023-06-22T21:20:21;20.20;99.90
58517;DHT22;44308;50.810;0.284;2023-06-22T21:22:46;20.20;99.90
58517;DHT22;44308;50.810;0.284;2023-06-22T21:25:14;20.20;99.90
58517;DHT22;44308;50.810;0.284;2023-06-22T21:27:41;20.10;99.90
58517;DHT22;44308;50.810;0.284;2023-06-22T21:30:12;20.00;99.90
58517;DHT22;44308;50.810;0.284;2023-06-22T21:32:41;19.90;99.90
58517;DHT22;44308;50.810;0.284;2023-06-22T21:35:07;19.80;99.90
58517;DHT22;44308;50.810;0.284;2023-06-22T21:37:35;19.80;99.90
58517;DHT22;44308;50.810;0.284;2023-06-22T21:40:01;19.70;99.90
58517;DHT22;44308;50.810;0.284;2023-06-22T21:42:28;19.70;99.90
58517;DHT22;44308;50.810;0.284;2023-06-22T21:44:55;19.70;99.90
58517;DHT22;44308;50.810;0.284;2023-06-22T21:47:21;19.70;99.90
58517;DHT22;44308;50.810;0.284;2023-06-22T21:49:48;19.70;99.90
58517;DHT22;44308;50.810;0.284;2023-06-22T21:52:14;19.60;99.90
58517;DHT22;44308;50.810;0.284;2023-06-22T21:54:40;19.60;99.90
58517;DHT22;44308;50.810;0.284;2023-06-22T21:57:06;19.60;99.90
58517;DHT22;44308;50.810;0.284;2023-06-22T21:59:32;19.60;99.90
58517;DHT22;44308;50.810;0.284;2023-06-22T22:01:57;19.50;99.90
58517;DHT22;44308;50.810;0.284;2023-06-22T22:04:24;19.50;99.90
58517;DHT22;44308;50.810;0.284;2023-06-22T22:06:50;19.40;99.90
58517;DHT22;44308;50.810;0.284;2023-06-22T22:09:20;19.40;99.90
58517;DHT22;44308;50.810;0.284;2023-06-22T22:11:49;19.40;99.90
58517;DHT22;44308;50.810;0.284;2023-06-22T22:14:15;19.40;99.90
58517;DHT22;44308;50.810;0.284;2023-06-22T22:16:42;19.40;99.90
58517;DHT22;44308;50.810;0.284;2023-06-22T22:19:08;19.40;99.90
58517;DHT22;44308;50.810;0.284;2023-06-22T22:21:34;19.30;99.90
58517;DHT22;44308;50.810;0.284;2023-06-22T22:24:01;19.30;99.90
58517;DHT22;44308;50.810;0.284;2023-06-22T22:26:27;19.30;99.90
58517;DHT22;44308;50.810;0.284;2023-06-22T22:28:53;19.30;99.90
58517;DHT22;44308;50.810;0.284;2023-06-22T22:31:18;19.20;99.90
58517;DHT22;44308;50.810;0.284;2023-06-22T22:34:07;19.20;99.90
58517;DHT22;44308;50.810;0.284;2023-06-22T22:36:35;19.20;99.90
58517;DHT22;44308;50.810;0.284;2023-06-22T22:39:01;19.10;99.90
58517;DHT22;44308;50.810;0.284;2023-06-22T22:41:27;19.00;99.90
58517;DHT22;44308;50.810;0.284;2023-06-22T22:43:54;19.00;99.90
58517;DHT22;44308;50.810;0.284;2023-06-22T22:46:20;18.90;99.90
58517;DHT22;44308;50.810;0.284;2023-06-22T22:48:45;18.90;99.90
58517;DHT22;44308;50.810;0.284;2023-06-22T22:51:11;18.80;99.90
58517;DHT22;44308;50.810;0.284;2023-06-22T22:53:37;18.80;99.90
58517;DHT22;44308;50.810;0.284;2023-06-22T22:56:03;18.70;99.90
58517;DHT22;44308;50.810;0.284;2023-06-22T22:58:28;18.80;99.90
58517;DHT22;44308;50.810;0.284;2023-06-22T23:00:54;18.70;99.90
58517;DHT22;44308;50.810;0.284;2023-06-22T23:03:21;18.70;99.90
58517;DHT22;44308;50.810;0.284;2023-06-22T23:05:47;18.60;99.90
58517;DHT22;44308;50.810;0.284;2023-06-22T23:08:12;18.50;99.90
58517;DHT22;44308;50.810;0.284;2023-06-22T23:10:38;18.50;99.90
58517;DHT22;44308;50.810;0.284;2023-06-22T23:13:04;18.40;99.90
58517;DHT22;44308;50.810;0.284;2023-06-22T23:15:31;18.40;99.90
58517;DHT22;44308;50.810;0.284;2023-06-22T23:17:56;18.40;99.90
58517;DHT22;44308;50.810;0.284;2023-06-22T23:20:22;18.40;99.90
58517;DHT22;44308;50.810;0.284;2023-06-22T23:22:54;18.40;99.90
58517;DHT22;44308;50.810;0.284;2023-06-22T23:25:26;18.30;99.90
58517;DHT22;44308;50.810;0.284;2023-06-22T23:27:52;18.40;99.90
58517;DHT22;44308;50.810;0.284;2023-06-22T23:30:20;18.30;99.90
58517;DHT22;44308;50.810;0.284;2023-06-22T23:32:47;18.30;99.90
58517;DHT22;44308;50.810;0.284;2023-06-22T23:35:13;18.30;99.90
58517;DHT22;44308;50.810;0.284;2023-06-22T23:37:39;18.30;99.90
58517;DHT22;44308;50.810;0.284;2023-06-22T23:40:06;18.30;99.90
58517;DHT22;44308;50.810;0.284;2023-06-22T23:42:38;18.20;99.90
58517;DHT22;44308;50.810;0.284;2023-06-22T23:45:04;18.20;99.90
58517;DHT22;44308;50.810;0.284;2023-06-22T23:47:29;18.20;99.90
58517;DHT22;44308;50.810;0.284;2023-06-22T23:49:55;18.20;99.90
58517;DHT22;44308;50.810;0.284;2023-06-22T23:52:21;18.10;99.90
58517;DHT22;44308;50.810;0.284;2023-06-22T23:54:47;18.10;99.90
58517;DHT22;44308;50.810;0.284;2023-06-22T23:57:12;18.10;99.90
58517;DHT22;44308;50.810;0.284;2023-06-22T23:59:38;18.00;99.90
